COOK1: Arkansas River Nr Coolidge, KS

                                SHEF ID:       COOK1     ARKANSAS R NR COOLIDGE, KS
STATION TYPE:
Regulating: Stage = 8.00, Flow = 2041

PRECIP STAGE STAGE(2) RIV-FLOW WTR-TEMP CONDUCT BAT-LOAD
in ft ft cfs F umho/cm volt
Ccp-Rev Ccp-Rev Ccp-Rev Ccp-Rev Ccp-Rev Ccp-Rev Ccp-Rev
(America/Chicago)
08/21 00:00 0.00 2.63 2.54 61 77.20 6165 12.95
08/21 01:00 0.00 2.62 2.55 60 76.39 6187 12.95
08/21 02:00 0.00 2.62 2.55 60 75.61 6212 12.95
08/21 03:00 0.00 2.62 2.52 60 74.61 6239 12.89
08/21 04:00 0.00 2.64 2.54 62 73.71 6273 12.89
08/21 05:00 0.00 2.64 2.56 62 72.82 6286 12.89
08/21 06:00 0.00 2.64 2.57 62 71.92 6219 12.89
08/21 07:00 0.00 2.65 2.56 63 71.26 6160 12.83
08/21 08:00 0.00 2.63 2.56 61 70.92 6158 12.83
08/21 09:00 0.00 2.62 2.55 60 70.83 6169 12.89
08/21 10:00 0.00 2.63 2.57 61 71.26 6176 13.07
08/21 11:00 0.00 2.64 2.56 62 73.04 6183 13.71
08/21 12:00 0.00 2.65 2.56 63 75.22 6187 13.65
08/21 13:00 0.00 2.65 2.55 63 76.86 6194 13.65
08/21 14:00 0.00 2.65 2.56 63 77.92 6201 13.65
08/21 15:00 0.00 2.62 2.54 60 80.20 6248 13.83
08/21 16:00 0.00 2.61 2.54 59 81.27 6293 13.36
08/21 17:00 0.00 2.59 2.54 57 81.55 6314 13.24
08/21 18:00 0.00 2.58 2.52 56 81.05 6322 13.18
08/21 19:00 0.00 2.58 2.50 56 79.86 6309 13.18
08/21 20:00 0.00 2.58 2.51 56 78.46 6304 13.18
08/21 21:00 0.00 2.57 2.50 55 76.91 6320 13.07
08/21 22:00 0.00 2.58 2.50 56 75.87 6334 13.00
08/21 23:00 ---- ---- ---- ---- ---- ---- ----
Data processed at Thu 22Aug2024 04:30 GMT

Parsing this webpage?

Checkout our new Data API! CWMSDataAPI (CDA)

Timeseries IDs (TSIDs)

TSIDs used from left to right in the data table
COOL.Precip-Inc.Total.1Hour.1Hour.Ccp-Rev
COOL.Stage.Inst.1Hour.0.Ccp-Rev
COOL.Stage-Alt.Inst.1Hour.0.Ccp-Rev
COOL.Flow.Inst.1Hour.0.Ccp-Rev
COOL.Temp-Water.Inst.1Hour.0.Ccp-Rev
COOL.Cond.Inst.1Hour.0.Ccp-Rev
COOL.Volt-Battery Load.Inst.1Hour.0.Ccp-Rev

                            

All information presented herein is the property of the government of the United States of America and may be revised or deleted at any time without prior notice. Dissemination of this information without the expressed written consent of the Public Affairs Office, Tulsa District U.S. Army Corps of Engineers is strictly prohibited. These data are gathered electronically and, as presented, have NOT undergone any form of quality control. These data are NOT guaranteed to be valid or correct.